createdAt,value
2022-08-26T00:02:54.181Z,7.57
2022-08-26T00:06:17.587Z,6.53
2022-08-26T00:09:47.327Z,7.07
2022-08-26T00:13:11.619Z,5.97
2022-08-26T00:16:34.802Z,6.78
2022-08-26T00:19:59.178Z,7.35
2022-08-26T00:23:24.151Z,8.20
2022-08-26T00:26:47.785Z,9.68
2022-08-26T00:30:14.932Z,8.45
2022-08-26T00:33:38.145Z,9.02
2022-08-26T00:37:02.805Z,8.90
2022-08-26T00:40:32.406Z,8.35
2022-08-26T00:43:55.491Z,9.82
2022-08-26T00:47:25.791Z,11.25
2022-08-26T00:50:59.403Z,18.17
2022-08-26T00:54:28.007Z,16.08
2022-08-26T00:57:52.670Z,16.42
2022-08-26T01:01:16.584Z,16.95
2022-08-26T01:04:40.798Z,18.02
2022-08-26T01:08:05.706Z,31.35
2022-08-26T01:11:30.243Z,19.33
2022-08-26T01:14:53.512Z,32.17
2022-08-26T01:18:17.094Z,16.88
2022-08-26T01:21:46.265Z,15.55
2022-08-26T01:25:11.047Z,25.13
2022-08-26T01:28:35.865Z,27.45
2022-08-26T01:31:59.787Z,18.63
2022-08-26T01:35:22.984Z,27.15
2022-08-26T01:38:46.370Z,26.33
2022-08-26T01:42:14.104Z,25.50
2022-08-26T01:45:40.455Z,20.65
2022-08-26T01:49:07.789Z,32.90
2022-08-26T01:52:33.965Z,29.38
2022-08-26T01:55:58.769Z,20.63
2022-08-26T01:59:25.192Z,19.20
2022-08-26T02:03:12.636Z,21.02
2022-08-26T02:06:38.613Z,34.00
2022-08-26T02:10:05.143Z,25.58
2022-08-26T02:13:31.339Z,25.33
2022-08-26T02:16:57.459Z,25.52
2022-08-26T02:20:21.937Z,23.38
2022-08-26T02:23:45.604Z,28.90
2022-08-26T02:27:14.735Z,33.38
2022-08-26T02:30:40.972Z,21.35
2022-08-26T02:34:13.198Z,18.58
2022-08-26T02:37:38.423Z,22.80
2022-08-26T02:41:05.598Z,27.58
2022-08-26T02:44:31.145Z,26.60
2022-08-26T02:47:58.493Z,33.58
2022-08-26T02:51:24.130Z,36.83
2022-08-26T02:54:47.241Z,31.85
2022-08-26T02:58:12.661Z,23.23
2022-08-26T03:01:37.039Z,21.10
2022-08-26T03:05:02.406Z,21.42
2022-08-26T03:08:26.929Z,26.10
2022-08-26T03:11:50.267Z,31.10
2022-08-26T03:15:17.859Z,27.52
2022-08-26T03:18:42.161Z,27.67
2022-08-26T03:22:05.633Z,27.65
2022-08-26T03:25:30.078Z,24.20
2022-08-26T03:29:10.728Z,26.20
2022-08-26T03:32:33.773Z,24.23
2022-08-26T03:35:56.792Z,23.73
2022-08-26T03:39:19.847Z,29.35
2022-08-26T03:42:44.513Z,22.42
2022-08-26T03:46:10.492Z,28.85
2022-08-26T03:49:34.166Z,22.02
2022-08-26T03:52:57.237Z,19.02
2022-08-26T03:56:20.358Z,22.75
2022-08-26T03:59:45.290Z,18.75
2022-08-26T04:03:09.974Z,21.88
2022-08-26T04:06:35.577Z,26.00
2022-08-26T04:09:59.598Z,21.73
2022-08-26T04:13:22.629Z,21.95
2022-08-26T04:16:47.269Z,17.42
2022-08-26T04:20:13.810Z,23.23
2022-08-26T04:23:47.808Z,18.20
2022-08-26T04:27:11.136Z,17.48
2022-08-26T04:30:37.690Z,14.65
2022-08-26T04:34:02.829Z,15.68
2022-08-26T04:37:25.821Z,15.43
2022-08-26T04:40:48.915Z,19.55
2022-08-26T04:44:12.152Z,18.63
2022-08-26T04:47:35.586Z,13.02
2022-08-26T04:51:00.962Z,11.70
2022-08-26T04:54:23.916Z,11.38
2022-08-26T04:57:48.407Z,11.18
2022-08-26T05:01:11.569Z,12.80
2022-08-26T05:04:35.116Z,13.60
2022-08-26T05:07:59.505Z,14.70
2022-08-26T05:11:22.795Z,11.93
2022-08-26T05:14:46.342Z,12.98
2022-08-26T05:18:10.462Z,13.52
2022-08-26T05:21:35.093Z,16.88
2022-08-26T05:24:59.468Z,14.38
2022-08-26T05:28:23.121Z,13.43
2022-08-26T05:31:46.190Z,10.98
2022-08-26T05:35:10.384Z,15.75
2022-08-26T05:38:33.422Z,11.65
2022-08-26T05:41:57.843Z,17.33
2022-08-26T05:45:24.106Z,12.60
2022-08-26T05:48:47.126Z,14.57
2022-08-26T05:52:10.332Z,12.82
2022-08-26T05:55:33.645Z,16.52
2022-08-26T05:58:58.702Z,13.52
2022-08-26T06:02:22.870Z,11.57
2022-08-26T06:05:45.960Z,14.85
2022-08-26T06:09:11.222Z,14.07
2022-08-26T06:12:35.063Z,11.20
2022-08-26T06:16:00.932Z,11.30
2022-08-26T06:19:24.477Z,13.50
2022-08-26T06:23:05.174Z,14.02
2022-08-26T06:26:28.603Z,13.02
2022-08-26T06:29:52.159Z,14.95
2022-08-26T06:33:16.783Z,13.15
2022-08-26T06:36:43.971Z,15.70
2022-08-26T06:40:08.381Z,11.18
